Time;durP1;ratioP1;P1;durP2;ratioP2;P2;SDS_P1;SDS_P2;PMS_P1;PMS_P2;Temp;Humidity;BMP_temperature;BMP_pressure;BME280_temperature;BME280_humidity;BME280_pressure;Samples;Min_cycle;Max_cycle;Signal;HPM_P1;HPM_P2
2023/12/31 00:02:03;;;;;;;17.07;11.67;;;;;;;10.38;67.28;94942.09;5030761;28;20188;-71
2023/12/31 00:04:29;;;;;;;20.13;12.50;;;;;;;10.40;67.23;94936.84;5030264;28;20716;-73
2023/12/31 00:06:56;;;;;;;17.30;11.47;;;;;;;10.33;67.15;94934.00;5037259;28;20668;-75
2023/12/31 00:09:23;;;;;;;17.57;11.37;;;;;;;10.41;67.12;94946.97;5036519;28;20183;-70
2023/12/31 00:11:50;;;;;;;23.20;12.90;;;;;;;10.33;67.13;94936.56;5029370;28;20200;-75
2023/12/31 00:14:16;;;;;;;22.30;12.50;;;;;;;10.43;67.20;94946.81;5030623;28;20191;-77
2023/12/31 00:16:43;;;;;;;18.37;11.97;;;;;;;10.43;67.12;94946.81;5033485;28;20215;-77
2023/12/31 00:19:11;;;;;;;18.90;11.83;;;;;;;10.37;67.16;94937.13;5033414;28;20465;-76
2023/12/31 00:21:42;;;;;;;20.80;12.73;;;;;;;10.27;67.20;94927.66;5033330;28;20199;-69
2023/12/31 00:24:09;;;;;;;18.43;12.90;;;;;;;10.44;67.16;94948.44;5033093;28;20196;-66
2023/12/31 00:26:36;;;;;;;20.13;12.03;;;;;;;10.16;67.09;94907.28;5033049;28;20196;-72
2023/12/31 00:29:03;;;;;;;19.53;13.20;;;;;;;10.37;67.27;94944.78;5033290;28;20540;-73
2023/12/31 00:31:29;;;;;;;20.47;12.40;;;;;;;10.45;67.00;94955.97;5049248;28;20591;-72
2023/12/31 00:33:57;;;;;;;20.80;12.37;;;;;;;10.44;67.09;94959.47;5052309;28;20640;-71
2023/12/31 00:36:26;;;;;;;18.63;11.47;;;;;;;10.46;67.24;94961.91;5052534;28;20226;-70
2023/12/31 00:38:53;;;;;;;20.97;12.33;;;;;;;10.46;66.89;94962.72;5052809;28;20250;-71
2023/12/31 00:41:20;;;;;;;19.83;12.23;;;;;;;10.45;67.10;94963.66;5052538;28;20222;-71
2023/12/31 00:43:47;;;;;;;17.50;11.37;;;;;;;10.45;67.25;94960.28;5053279;28;20195;-71
2023/12/31 00:46:14;;;;;;;19.73;11.80;;;;;;;10.44;66.98;94962.00;5055228;28;20214;-72
2023/12/31 00:48:41;;;;;;;15.87;11.20;;;;;;;10.44;67.15;94962.00;5060051;28;20187;-71
2023/12/31 00:51:07;;;;;;;20.33;11.60;;;;;;;10.44;67.07;94963.75;5067836;28;20202;-76
2023/12/31 00:53:36;;;;;;;17.77;12.17;;;;;;;10.39;67.04;94960.78;5058908;28;20741;-74
2023/12/31 00:56:03;;;;;;;16.87;11.33;;;;;;;10.42;67.22;94963.09;5052532;28;20210;-73
2023/12/31 00:58:30;;;;;;;18.90;11.60;;;;;;;10.42;67.13;94961.34;5052385;28;20668;-72
2023/12/31 01:00:56;;;;;;;16.93;12.00;;;;;;;10.42;67.46;94963.91;5052190;28;20325;-77
2023/12/31 01:03:23;;;;;;;16.40;11.93;;;;;;;10.37;67.23;94953.28;5052578;28;20202;-73
2023/12/31 01:05:50;;;;;;;20.47;12.43;;;;;;;10.44;67.36;94962.00;5052556;28;20260;-77
2023/12/31 01:08:17;;;;;;;17.20;11.50;;;;;;;10.45;67.35;94950.06;5052266;28;20222;-77
2023/12/31 01:10:45;;;;;;;20.17;11.90;;;;;;;10.47;67.28;94951.53;5052569;28;20194;-74
2023/12/31 01:13:12;;;;;;;16.33;11.37;;;;;;;10.36;67.12;94927.81;5052102;28;20540;-73
2023/12/31 01:15:38;;;;;;;16.33;11.10;;;;;;;10.50;67.51;94953.03;5052288;28;20649;-75
2023/12/31 01:18:05;;;;;;;15.20;11.57;;;;;;;10.46;67.29;94944.00;5052128;28;20187;-76
2023/12/31 01:20:32;;;;;;;14.20;10.60;;;;;;;10.51;67.17;94946.97;5051330;28;20183;-71
2023/12/31 01:22:59;;;;;;;16.97;11.00;;;;;;;10.54;67.17;94949.28;5050166;28;20187;-74
2023/12/31 01:25:26;;;;;;;15.10;11.00;;;;;;;10.35;67.17;94910.88;5051512;28;20198;-73
2023/12/31 01:27:55;;;;;;;14.47;10.77;;;;;;;10.57;67.37;94943.88;5051692;28;20919;-75
2023/12/31 01:30:22;;;;;;;17.00;11.00;;;;;;;10.58;67.46;94945.53;5052161;28;20656;-73
2023/12/31 01:32:50;;;;;;;14.60;10.13;;;;;;;10.54;67.20;94939.84;5051796;28;20211;-71
2023/12/31 01:35:16;;;;;;;16.03;10.50;;;;;;;10.39;67.04;94907.91;5051236;28;20191;-76
2023/12/31 01:37:43;;;;;;;20.40;10.63;;;;;;;10.57;67.32;94937.97;5031822;28;20231;-72
2023/12/31 01:40:11;;;;;;;15.60;10.40;;;;;;;10.55;67.13;94927.88;5032096;28;20242;-76
2023/12/31 01:42:36;;;;;;;15.53;10.83;;;;;;;10.42;67.26;94919.63;5031781;28;20588;-72
2023/12/31 01:45:05;;;;;;;15.93;10.53;;;;;;;10.51;67.23;94942.66;5031741;28;20202;-75
2023/12/31 01:47:33;;;;;;;15.93;10.70;;;;;;;10.49;67.28;94953.94;5031723;28;20584;-80
2023/12/31 01:50:01;;;;;;;16.10;10.43;;;;;;;10.46;67.38;94946.56;5031534;28;20199;-72
2023/12/31 01:52:29;;;;;;;16.07;10.00;;;;;;;10.44;67.23;94944.13;5043951;28;20195;-70
2023/12/31 01:55:00;;;;;;;15.13;10.00;;;;;;;10.40;67.19;94950.44;5051473;28;20236;-73
2023/12/31 01:57:31;;;;;;;15.17;9.57;;;;;;;10.21;67.43;94917.13;5032057;28;20227;-74
2023/12/31 01:59:59;;;;;;;17.67;10.33;;;;;;;10.35;67.50;94936.44;5031259;28;20249;-68
2023/12/31 02:02:28;;;;;;;16.43;10.50;;;;;;;10.32;67.70;94939.22;5031494;28;20196;-73
2023/12/31 02:04:54;;;;;;;19.13;12.73;;;;;;;10.30;67.69;94941.94;5031113;28;20629;-70
2023/12/31 02:07:21;;;;;;;17.77;11.23;;;;;;;10.29;67.67;94927.53;5031525;28;20179;-70
2023/12/31 02:09:48;;;;;;;18.40;12.27;;;;;;;9.73;67.74;94844.47;5031114;28;20199;-67
2023/12/31 02:12:15;;;;;;;17.93;10.80;;;;;;;10.13;67.53;94906.75;5031189;28;20264;-75
2023/12/31 02:14:42;;;;;;;16.90;11.03;;;;;;;10.28;67.40;94928.47;5032690;28;20662;-74
2023/12/31 02:17:08;;;;;;;15.77;11.13;;;;;;;10.27;67.61;94917.44;5051136;28;20238;-71
2023/12/31 02:19:36;;;;;;;16.07;10.87;;;;;;;10.25;67.68;94919.31;5050437;28;20238;-75
2023/12/31 02:22:04;;;;;;;14.60;11.00;;;;;;;10.23;67.58;94908.41;5050634;28;20337;-75
2023/12/31 02:24:34;;;;;;;15.90;10.50;;;;;;;10.30;67.39;94912.06;5050704;28;20329;-73
2023/12/31 02:27:03;;;;;;;18.40;10.07;;;;;;;10.33;67.55;94922.97;5051064;28;20193;-72
2023/12/31 02:29:29;;;;;;;19.90;11.50;;;;;;;9.90;67.56;94849.94;5051233;28;20195;-69
2023/12/31 02:31:56;;;;;;;15.50;9.93;;;;;;;10.24;67.57;94907.47;5050531;28;20225;-68
2023/12/31 02:34:23;;;;;;;15.43;10.10;;;;;;;10.33;67.46;94910.19;5051239;28;20180;-68
2023/12/31 02:36:50;;;;;;;14.77;10.50;;;;;;;10.33;67.75;94908.44;5050192;28;20259;-68
2023/12/31 02:39:17;;;;;;;12.50;10.60;;;;;;;9.98;67.61;94850.09;5049294;28;20202;-69
2023/12/31 02:41:43;;;;;;;15.27;10.90;;;;;;;10.33;67.48;94907.66;5050966;28;20191;-75
2023/12/31 02:44:11;;;;;;;17.30;10.77;;;;;;;10.18;67.63;94889.25;5051114;28;20179;-72
2023/12/31 02:46:38;;;;;;;15.43;10.30;;;;;;;10.27;67.58;94909.75;5050520;28;20195;-77
2023/12/31 02:49:06;;;;;;;16.13;10.87;;;;;;;10.25;67.75;94903.97;5050860;28;20629;-72
2023/12/31 02:51:33;;;;;;;14.30;11.20;;;;;;;10.22;67.74;94908.50;5050369;28;20265;-71
2023/12/31 02:53:59;;;;;;;13.83;10.10;;;;;;;10.19;67.89;94909.59;5050237;28;20198;-72
2023/12/31 02:56:26;;;;;;;17.67;9.93;;;;;;;10.14;67.83;94905.78;5050297;28;20276;-73
2023/12/31 02:58:53;;;;;;;17.10;10.83;;;;;;;10.13;67.78;94911.84;5050661;28;20604;-71
2023/12/31 03:01:22;;;;;;;16.20;11.30;;;;;;;10.09;68.01;94908.75;5050692;28;20183;-71
2023/12/31 03:03:48;;;;;;;15.37;10.00;;;;;;;10.06;67.90;94911.56;5050813;28;20195;-66
2023/12/31 03:06:16;;;;;;;15.80;10.97;;;;;;;10.03;67.98;94904.16;5050943;28;20222;-67
2023/12/31 03:08:43;;;;;;;15.93;9.70;;;;;;;9.99;68.24;94906.16;5050408;28;20194;-69
2023/12/31 03:11:10;;;;;;;17.47;10.90;;;;;;;9.87;68.07;94891.03;5050359;28;20183;-67
2023/12/31 03:13:36;;;;;;;15.53;10.70;;;;;;;9.93;68.10;94910.97;5049716;28;20567;-70
2023/12/31 03:16:05;;;;;;;13.27;10.23;;;;;;;9.90;68.18;94903.56;5050031;28;20187;-69
2023/12/31 03:18:34;;;;;;;16.77;11.07;;;;;;;9.87;68.21;94908.94;5049563;28;20330;-74
2023/12/31 03:21:00;;;;;;;15.83;10.83;;;;;;;9.58;68.29;94868.72;5036324;28;20192;-68
2023/12/31 03:23:27;;;;;;;16.20;10.87;;;;;;;9.42;68.24;94841.13;5030594;28;20195;-69
2023/12/31 03:25:54;;;;;;;15.50;10.53;;;;;;;9.77;68.42;94909.69;5033046;28;20200;-70
2023/12/31 03:28:21;;;;;;;12.93;9.33;;;;;;;9.67;68.24;94890.97;5036258;28;20803;-75
2023/12/31 03:30:48;;;;;;;19.93;13.07;;;;;;;9.61;68.45;94885.56;5051942;28;20190;-73
2023/12/31 03:33:14;;;;;;;27.37;15.73;;;;;;;9.71;68.43;94902.53;5045506;28;20272;-68
2023/12/31 03:35:43;;;;;;;23.10;13.10;;;;;;;9.69;68.50;94898.50;5029979;28;20192;-71
2023/12/31 03:38:09;;;;;;;23.10;14.03;;;;;;;9.68;68.52;94904.53;5029731;28;20224;-72
2023/12/31 03:40:36;;;;;;;17.17;12.67;;;;;;;9.65;68.55;94897.13;5048512;28;20205;-73
2023/12/31 03:43:03;;;;;;;19.73;13.00;;;;;;;9.62;68.46;94902.47;5049747;28;20191;-71
2023/12/31 03:45:30;;;;;;;21.67;13.40;;;;;;;9.54;68.82;94901.38;5049164;28;20190;-73
2023/12/31 03:47:57;;;;;;;20.73;12.40;;;;;;;9.55;68.63;94904.75;5045402;28;20816;-71
2023/12/31 03:50:23;;;;;;;19.57;13.07;;;;;;;9.52;68.70;94905.78;5029434;28;20187;-73
2023/12/31 03:52:51;;;;;;;20.07;12.83;;;;;;;9.46;68.65;94902.94;5029790;28;20195;-72
2023/12/31 03:55:18;;;;;;;21.63;12.90;;;;;;;9.46;68.81;94901.22;5029397;28;20207;-77
2023/12/31 03:57:45;;;;;;;18.40;12.60;;;;;;;9.43;68.88;94905.75;5029397;28;20223;-70
2023/12/31 04:00:13;;;;;;;20.53;13.13;;;;;;;9.21;68.59;94876.88;5029238;28;20198;-75
2023/12/31 04:02:39;;;;;;;20.27;13.80;;;;;;;9.38;68.94;94906.13;5032975;28;20636;-75
2023/12/31 04:05:07;;;;;;;18.47;13.20;;;;;;;9.35;68.72;94918.31;5049384;28;20187;-74
2023/12/31 04:07:34;;;;;;;18.63;12.37;;;;;;;9.18;69.20;94894.97;5049179;28;20223;-71
2023/12/31 04:10:02;;;;;;;14.87;11.50;;;;;;;9.30;68.95;94922.06;5048556;28;20191;-72
2023/12/31 04:12:29;;;;;;;21.77;13.50;;;;;;;9.28;69.03;94918.00;5049411;28;20197;-73
2023/12/31 04:14:56;;;;;;;19.90;12.57;;;;;;;9.19;68.93;94914.44;5049435;28;20189;-72
2023/12/31 04:17:23;;;;;;;17.67;12.20;;;;;;;9.23;69.06;94920.13;5045282;28;20203;-72
2023/12/31 04:19:49;;;;;;;19.70;12.63;;;;;;;9.20;68.96;94918.63;5035922;28;20215;-71
2023/12/31 04:22:16;;;;;;;19.47;12.93;;;;;;;9.19;69.20;94921.28;5048798;28;20195;-71
2023/12/31 04:24:43;;;;;;;19.40;12.83;;;;;;;9.16;69.13;94929.22;5048945;28;20214;-71
2023/12/31 04:27:11;;;;;;;17.93;12.27;;;;;;;9.13;68.99;94927.72;5049521;28;20187;-70
2023/12/31 04:29:38;;;;;;;21.27;11.80;;;;;;;9.11;69.29;94929.59;5049425;28;20641;-70
2023/12/31 04:32:05;;;;;;;18.30;11.40;;;;;;;9.08;69.20;94932.38;5035006;28;20844;-68
2023/12/31 04:34:32;;;;;;;14.33;11.57;;;;;;;9.00;69.24;94917.66;5031623;28;20273;-72
2023/12/31 04:36:59;;;;;;;19.27;12.23;;;;;;;9.04;69.39;94934.34;5031212;28;20712;-69
2023/12/31 04:39:25;;;;;;;20.77;12.50;;;;;;;8.97;69.27;94932.41;5031800;28;20666;-68
2023/12/31 04:41:54;;;;;;;18.20;12.03;;;;;;;9.01;69.30;94942.25;5029773;28;20192;-68
2023/12/31 04:44:22;;;;;;;20.53;12.37;;;;;;;8.99;69.21;94939.03;5045251;28;20195;-73
2023/12/31 04:46:49;;;;;;;16.90;11.67;;;;;;;8.90;69.44;94927.00;5048648;28;20191;-73
2023/12/31 04:49:16;;;;;;;17.03;11.07;;;;;;;8.96;69.16;94941.00;5048611;28;20198;-74
2023/12/31 04:51:43;;;;;;;22.63;13.37;;;;;;;8.83;69.57;94928.41;5049343;28;20187;-73
2023/12/31 04:54:10;;;;;;;24.00;15.70;;;;;;;8.76;69.28;94919.59;5048764;28;20187;-76
2023/12/31 04:56:37;;;;;;;22.37;16.80;;;;;;;8.93;69.57;94942.03;5048773;28;20283;-70
2023/12/31 04:59:04;;;;;;;20.93;14.10;;;;;;;8.92;69.60;94952.38;5031899;28;20253;-71
2023/12/31 05:01:33;;;;;;;22.93;14.27;;;;;;;8.90;69.54;94946.59;5030881;28;20653;-67
2023/12/31 05:04:00;;;;;;;20.07;14.23;;;;;;;8.87;69.59;94950.19;5032293;28;20665;-71
2023/12/31 05:06:27;;;;;;;19.70;13.33;;;;;;;8.71;69.66;94926.81;5033111;28;20188;-73
2023/12/31 05:08:54;;;;;;;20.27;13.13;;;;;;;8.84;69.67;94952.97;5032686;28;20768;-75
2023/12/31 05:11:20;;;;;;;20.17;13.17;;;;;;;8.73;69.62;94935.97;5032229;28;20196;-75
2023/12/31 05:13:47;;;;;;;18.87;13.00;;;;;;;8.80;69.71;94954.94;5048450;28;20202;-74
2023/12/31 05:16:15;;;;;;;19.63;13.20;;;;;;;8.78;69.87;94951.72;5052515;28;20571;-67
2023/12/31 05:18:46;;;;;;;21.07;13.33;;;;;;;8.76;69.79;94951.03;5051434;28;20296;-75
2023/12/31 05:21:13;;;;;;;18.43;12.47;;;;;;;8.77;69.89;94956.94;5052412;28;20191;-74
2023/12/31 05:23:40;;;;;;;17.57;12.20;;;;;;;8.74;69.98;94957.97;5051909;28;20202;-68
2023/12/31 05:26:07;;;;;;;22.37;13.27;;;;;;;8.71;69.82;94963.31;5051990;28;20609;-73
2023/12/31 05:28:34;;;;;;;17.83;12.60;;;;;;;8.69;69.81;94955.00;5035723;28;20250;-80
2023/12/31 05:31:00;;;;;;;21.37;13.47;;;;;;;8.67;69.65;94953.47;5041465;28;20627;-76
2023/12/31 05:33:27;;;;;;;22.13;14.43;;;;;;;8.65;69.79;94952.81;5032533;28;20180;-79
2023/12/31 05:35:55;;;;;;;22.50;14.07;;;;;;;8.41;69.84;94924.91;5032023;28;20619;-80
2023/12/31 05:38:22;;;;;;;19.23;12.80;;;;;;;8.63;69.71;94952.09;5031761;28;20249;-74
2023/12/31 05:40:49;;;;;;;20.77;13.70;;;;;;;8.60;69.89;94948.06;5031282;28;20211;-74
2023/12/31 05:43:16;;;;;;;17.63;11.93;;;;;;;8.59;69.81;94951.53;5032714;28;20195;-75
2023/12/31 05:45:42;;;;;;;17.77;12.93;;;;;;;7.98;69.63;94856.88;5031533;28;20728;-71
2023/12/31 05:48:09;;;;;;;20.50;12.77;;;;;;;8.43;69.76;94935.81;5032097;28;20184;-72
2023/12/31 05:50:37;;;;;;;20.77;13.43;;;;;;;8.51;69.76;94949.59;5031428;28;20220;-72
2023/12/31 05:53:05;;;;;;;19.17;14.00;;;;;;;8.52;69.67;94952.94;5031647;28;20196;-75
2023/12/31 05:55:32;;;;;;;23.23;13.80;;;;;;;7.80;69.69;94844.63;5031172;28;20196;-66
2023/12/31 05:57:59;;;;;;;21.23;13.40;;;;;;;8.49;69.79;94958.25;5031736;28;20600;-71
2023/12/31 06:00:26;;;;;;;23.30;13.63;;;;;;;8.45;69.65;94949.22;5032159;28;20215;-69
2023/12/31 06:02:53;;;;;;;20.60;13.73;;;;;;;8.47;69.67;94955.84;5032333;28;20202;-74
2023/12/31 06:05:19;;;;;;;20.77;13.43;;;;;;;8.45;69.83;94952.59;5051754;28;20199;-72
2023/12/31 06:07:46;;;;;;;20.63;13.40;;;;;;;8.45;69.72;94960.25;5046662;28;20184;-70
2023/12/31 06:10:14;;;;;;;19.83;13.87;;;;;;;8.45;69.84;94959.44;5041560;28;20196;-73
2023/12/31 06:12:41;;;;;;;22.97;14.10;;;;;;;8.45;70.02;94956.88;5030832;28;20214;-76
2023/12/31 06:15:09;;;;;;;22.20;14.57;;;;;;;8.39;69.81;94944.63;5031226;28;20214;-72
2023/12/31 06:17:36;;;;;;;18.87;12.87;;;;;;;8.21;69.86;94923.88;5030897;28;20223;-71
2023/12/31 06:20:04;;;;;;;24.70;14.70;;;;;;;8.48;69.81;94960.00;5031022;28;20220;-72
2023/12/31 06:22:35;;;;;;;22.10;13.97;;;;;;;8.35;69.61;94944.00;5050507;28;20457;-74
2023/12/31 06:25:02;;;;;;;22.80;14.70;;;;;;;8.27;69.76;94929.31;5050637;28;20532;-75
2023/12/31 06:27:30;;;;;;;21.20;13.53;;;;;;;8.46;70.00;94953.41;5050944;28;20190;-69
2023/12/31 06:29:57;;;;;;;22.57;14.07;;;;;;;8.53;69.63;94963.00;5051407;28;20201;-71
2023/12/31 06:32:24;;;;;;;21.93;14.33;;;;;;;8.57;69.84;94968.69;5050330;28;20187;-69
2023/12/31 06:34:51;;;;;;;21.90;14.63;;;;;;;8.64;69.50;94974.13;5050725;28;20218;-68
2023/12/31 06:37:18;;;;;;;20.70;14.30;;;;;;;8.77;69.34;94967.97;5050376;28;20214;-66
2023/12/31 06:39:44;;;;;;;26.37;15.57;;;;;;;8.97;68.70;94963.81;5050514;28;20679;-67
2023/12/31 06:42:11;;;;;;;20.20;13.97;;;;;;;9.29;68.76;94975.78;5033520;28;20257;-68
2023/12/31 06:44:40;;;;;;;22.63;14.63;;;;;;;9.67;68.56;94979.50;5030339;28;20203;-68
2023/12/31 06:47:06;;;;;;;18.33;13.63;;;;;;;9.88;68.55;94947.09;5030627;28;20180;-68
2023/12/31 06:49:34;;;;;;;21.40;14.77;;;;;;;10.50;68.77;94973.50;5030211;28;20673;-67
2023/12/31 06:52:01;;;;;;;21.37;13.47;;;;;;;10.96;68.98;94982.31;5030426;28;20230;-71
2023/12/31 06:54:29;;;;;;;21.93;14.37;;;;;;;11.30;69.06;94963.06;5030790;28;20501;-75
2023/12/31 06:56:56;;;;;;;21.10;14.40;;;;;;;11.89;68.90;94981.78;5031127;28;20196;-74
2023/12/31 06:59:23;;;;;;;27.03;14.93;;;;;;;12.35;68.50;94980.16;5030421;28;20667;-73
2023/12/31 07:01:51;;;;;;;22.93;14.90;;;;;;;12.81;68.05;94986.13;5031808;28;20195;-71
2023/12/31 07:04:18;;;;;;;21.97;14.03;;;;;;;13.26;67.28;94985.34;5030356;28;20279;-71
2023/12/31 07:06:45;;;;;;;22.47;15.27;;;;;;;13.67;66.58;94976.19;5030574;28;20192;-73
2023/12/31 07:09:12;;;;;;;21.53;16.27;;;;;;;14.16;65.80;94984.25;5029922;28;20549;-74
2023/12/31 07:11:38;;;;;;;21.03;14.73;;;;;;;14.58;64.85;94990.41;5030070;28;20241;-73
2023/12/31 07:14:05;;;;;;;22.67;15.03;;;;;;;15.02;64.03;94996.16;5029896;28;20184;-67
2023/12/31 07:16:32;;;;;;;24.93;15.57;;;;;;;15.27;63.14;94974.66;5036407;28;20182;-70
2023/12/31 07:19:00;;;;;;;20.37;14.93;;;;;;;15.81;62.48;94987.09;5049959;28;20257;-69
2023/12/31 07:21:27;;;;;;;20.67;15.37;;;;;;;16.19;61.63;94995.09;5036796;28;20187;-70
2023/12/31 07:23:54;;;;;;;20.67;14.97;;;;;;;16.56;60.75;94997.09;5029530;28;20295;-69
2023/12/31 07:26:25;;;;;;;24.63;16.40;;;;;;;16.90;60.21;94988.28;5040397;28;20256;-68
2023/12/31 07:28:52;;;;;;;22.60;15.60;;;;;;;17.26;59.38;94996.31;5049869;28;20305;-70
2023/12/31 07:31:20;;;;;;;21.17;14.97;;;;;;;17.54;58.67;94994.84;5049487;28;20187;-68
2023/12/31 07:33:47;;;;;;;21.90;15.20;;;;;;;17.81;57.76;94987.53;5049625;28;20206;-73
2023/12/31 07:36:15;;;;;;;23.57;15.27;;;;;;;18.03;57.33;94978.13;5049298;28;20191;-75
2023/12/31 07:38:43;;;;;;;22.57;16.37;;;;;;;18.32;56.58;94984.31;5049351;28;20682;-77
2023/12/31 07:41:13;;;;;;;20.37;14.87;;;;;;;18.57;56.07;94985.66;5049052;28;20282;-75
2023/12/31 07:43:40;;;;;;;22.07;16.00;;;;;;;18.81;55.45;94989.75;5039244;28;20275;-75
2023/12/31 07:46:06;;;;;;;20.57;15.50;;;;;;;18.96;55.31;94995.72;5045043;28;20238;-73
2023/12/31 07:48:34;;;;;;;21.63;16.77;;;;;;;18.95;55.38;94980.34;5033311;28;20188;-71
2023/12/31 07:51:03;;;;;;;28.07;18.83;;;;;;;18.72;55.03;94965.72;5042159;28;20641;-69
2023/12/31 07:53:31;;;;;;;21.80;16.13;;;;;;;18.76;54.74;94997.28;5049380;28;20214;-69
2023/12/31 07:55:59;;;;;;;23.00;17.83;;;;;;;18.55;54.80;94991.00;5028780;28;20191;-69
2023/12/31 07:58:27;;;;;;;23.77;17.07;;;;;;;18.31;54.56;94978.34;5032837;28;20259;-71
2023/12/31 08:00:55;;;;;;;24.57;18.07;;;;;;;18.28;54.53;94996.81;5029291;28;20192;-75
2023/12/31 08:03:22;;;;;;;23.93;16.97;;;;;;;18.10;54.69;94997.16;5032524;28;20278;-71
2023/12/31 08:05:49;;;;;;;22.50;16.80;;;;;;;17.95;54.54;94985.94;5035846;28;20609;-75
2023/12/31 08:08:15;;;;;;;25.93;18.03;;;;;;;18.13;53.93;94999.38;5049180;28;20218;-70
2023/12/31 08:10:44;;;;;;;28.77;17.10;;;;;;;18.27;53.19;94996.00;5040766;28;20184;-73
2023/12/31 08:13:11;;;;;;;16.20;11.80;;;;;;;18.16;55.16;94986.06;5028500;28;20219;-67
2023/12/31 08:15:38;;;;;;;22.37;15.10;;;;;;;18.13;57.81;95009.72;5030783;28;20743;-64
2023/12/31 08:18:05;;;;;;;16.73;12.70;;;;;;;17.88;57.80;94988.47;5047978;28;20186;-68
2023/12/31 08:20:33;;;;;;;17.43;13.63;;;;;;;17.83;58.92;95006.25;5040263;28;20217;-71
2023/12/31 08:23:00;;;;;;;17.37;13.83;;;;;;;17.66;59.58;95007.34;5040249;28;20199;-68
2023/12/31 08:25:27;;;;;;;17.37;13.93;;;;;;;17.47;60.04;95011.19;5029249;28;20673;-69
2023/12/31 08:27:55;;;;;;;18.23;13.23;;;;;;;17.36;60.09;95009.00;5040498;28;20198;-69
2023/12/31 08:30:22;;;;;;;17.10;13.30;;;;;;;17.30;59.98;95006.13;5049103;28;20195;-71
2023/12/31 08:32:49;;;;;;;18.47;14.97;;;;;;;17.28;59.61;95002.94;5043259;28;20254;-68
2023/12/31 08:35:16;;;;;;;22.07;14.87;;;;;;;17.31;58.90;94994.00;5030125;28;20269;-66
2023/12/31 08:37:43;;;;;;;20.83;15.70;;;;;;;17.53;58.15;94961.41;5045861;28;20674;-69
2023/12/31 08:40:11;;;;;;;19.33;14.80;;;;;;;18.20;57.47;95002.06;5035459;28;20219;-72
2023/12/31 08:42:40;;;;;;;22.33;16.13;;;;;;;18.49;56.62;95001.28;5045216;28;20302;-68
2023/12/31 08:45:10;;;;;;;21.87;15.33;;;;;;;18.64;56.32;95006.44;5036103;28;20227;-73
2023/12/31 08:47:38;;;;;;;21.97;16.57;;;;;;;18.24;56.63;94985.19;5039679;28;20286;-77
2023/12/31 08:50:09;;;;;;;20.40;15.63;;;;;;;18.03;56.73;95012.56;5049446;28;20211;-77
2023/12/31 08:52:37;;;;;;;20.20;14.87;;;;;;;17.74;57.48;95009.91;5036306;28;20263;-69
2023/12/31 08:55:06;;;;;;;19.97;14.83;;;;;;;17.47;57.66;95004.25;5030366;28;20196;-72
2023/12/31 08:57:33;;;;;;;17.50;14.47;;;;;;;17.26;57.52;95004.06;5042038;28;20292;-70
2023/12/31 08:59:59;;;;;;;19.10;14.97;;;;;;;17.03;56.86;94994.50;5041751;28;20223;-70
2023/12/31 09:02:28;;;;;;;21.20;14.67;;;;;;;16.55;56.00;94967.91;5038386;28;20187;-67
2023/12/31 09:04:55;;;;;;;24.20;14.70;;;;;;;16.58;56.23;94995.19;5037340;28;20199;-70
2023/12/31 09:07:22;;;;;;;22.73;14.53;;;;;;;16.52;56.97;94996.63;5031087;28;20200;-76
2023/12/31 09:09:49;;;;;;;17.77;12.83;;;;;;;16.52;57.73;94996.63;5030115;28;20179;-73
2023/12/31 09:12:16;;;;;;;19.87;13.87;;;;;;;16.43;58.30;94979.56;5031320;28;20284;-83
2023/12/31 09:14:42;;;;;;;21.23;13.90;;;;;;;16.25;58.52;94955.75;5036444;28;20218;-71
2023/12/31 09:17:10;;;;;;;21.43;14.30;;;;;;;16.24;58.82;94970.44;5039374;28;20211;-75
2023/12/31 09:19:40;;;;;;;20.27;15.33;;;;;;;16.16;58.66;94964.47;5029494;28;20239;-67
2023/12/31 09:22:07;;;;;;;18.87;13.93;;;;;;;16.14;58.61;94974.16;5039314;28;20241;-73
2023/12/31 09:24:35;;;;;;;16.37;13.63;;;;;;;15.86;58.65;94937.63;5037945;28;20584;-69
2023/12/31 09:27:01;;;;;;;17.30;13.43;;;;;;;15.92;58.76;94960.97;5029746;28;20419;-69
2023/12/31 09:29:29;;;;;;;18.07;13.17;;;;;;;15.79;58.69;94942.63;5030929;28;20584;-73
2023/12/31 09:31:56;;;;;;;15.93;12.70;;;;;;;15.96;58.87;94964.03;5041109;28;20676;-72
2023/12/31 09:34:23;;;;;;;17.60;12.43;;;;;;;15.96;59.07;94962.25;5030120;28;20207;-70
2023/12/31 09:36:52;;;;;;;16.33;11.93;;;;;;;15.97;59.05;94963.06;5043809;28;20274;-69
2023/12/31 09:39:18;;;;;;;16.03;12.17;;;;;;;15.96;59.17;94958.88;5049268;28;20560;-73
2023/12/31 09:41:50;;;;;;;16.93;13.03;;;;;;;15.92;59.24;94960.16;5047634;28;20183;-65
2023/12/31 09:44:19;;;;;;;19.13;13.23;;;;;;;15.79;59.28;94932.28;5031470;28;20200;-71
2023/12/31 09:46:54;;;;;;;19.27;13.37;;;;;;;15.82;59.12;94944.88;5048310;28;20294;-75
2023/12/31 09:49:22;;;;;;;17.67;12.87;;;;;;;15.83;59.09;94943.09;5049408;28;20277;-73
2023/12/31 09:51:49;;;;;;;19.43;12.30;;;;;;;15.67;59.17;94913.81;5048926;28;20202;-74
2023/12/31 09:54:18;;;;;;;15.13;11.70;;;;;;;15.92;59.73;94942.91;5049341;28;20194;-65
2023/12/31 09:56:47;;;;;;;15.30;11.77;;;;;;;15.99;60.07;94937.91;5049443;28;20268;-72
2023/12/31 09:59:16;;;;;;;19.90;12.17;;;;;;;15.95;60.50;94906.47;5047479;28;20598;-67
2023/12/31 10:01:43;;;;;;;16.67;12.10;;;;;;;16.16;61.97;94916.25;5049128;28;20572;-67
2023/12/31 10:04:10;;;;;;;17.83;11.73;;;;;;;16.36;62.69;94913.28;5048590;28;20190;-68
2023/12/31 10:06:39;;;;;;;16.23;11.90;;;;;;;16.49;62.49;94918.69;5048685;28;20214;-69
2023/12/31 10:09:09;;;;;;;17.67;12.33;;;;;;;16.55;62.33;94908.50;5048967;28;20205;-74
2023/12/31 10:11:39;;;;;;;15.07;10.63;;;;;;;16.64;62.53;94909.28;5049111;28;20241;-70
2023/12/31 10:14:06;;;;;;;17.93;11.27;;;;;;;16.73;62.87;94908.28;5048118;28;20195;-75
2023/12/31 10:16:40;;;;;;;16.83;11.17;;;;;;;16.83;63.29;94900.31;5048375;28;20199;-66
2023/12/31 10:19:07;;;;;;;14.57;10.33;;;;;;;16.98;63.46;94895.22;5035291;28;20266;-64
2023/12/31 10:21:34;;;;;;;19.93;11.67;;;;;;;17.05;62.72;94896.13;5028490;28;20294;-70
2023/12/31 10:24:01;;;;;;;15.60;10.73;;;;;;;16.85;62.03;94859.63;5028577;28;20649;-64
2023/12/31 10:26:28;;;;;;;15.37;10.53;;;;;;;17.03;60.97;94887.75;5028744;28;20188;-64
2023/12/31 10:28:56;;;;;;;16.40;11.10;;;;;;;17.01;59.93;94890.53;5041693;28;20205;-69
2023/12/31 10:31:25;;;;;;;16.27;10.97;;;;;;;17.00;59.13;94893.25;5048397;28;20195;-69
2023/12/31 10:33:51;;;;;;;17.10;9.83;;;;;;;17.01;58.52;94882.78;5048182;28;20285;-68
2023/12/31 10:36:22;;;;;;;13.80;10.40;;;;;;;17.00;58.39;94883.72;5048019;28;20675;-69
2023/12/31 10:38:50;;;;;;;17.30;10.60;;;;;;;17.03;58.17;94885.97;5037663;28;20228;-70
2023/12/31 10:41:21;;;;;;;15.87;10.47;;;;;;;16.86;57.86;94853.47;5027743;28;20653;-75
2023/12/31 10:43:48;;;;;;;17.87;10.23;;;;;;;16.99;57.88;94878.75;5027771;28;20199;-73
2023/12/31 10:46:18;;;;;;;14.87;10.10;;;;;;;16.98;58.10;94880.53;5028520;28;20195;-71
2023/12/31 10:48:48;;;;;;;13.77;9.80;;;;;;;16.97;58.07;94878.13;5028068;28;20196;-70
2023/12/31 10:51:22;;;;;;;10.93;8.57;;;;;;;16.95;57.97;94867.94;5028349;28;20188;-72
2023/12/31 10:53:51;;;;;;;13.00;9.00;;;;;;;16.95;57.83;94861.97;5027641;28;20195;-61
2023/12/31 10:56:19;;;;;;;10.57;8.83;;;;;;;16.95;57.71;94854.22;5029478;28;20211;-75
2023/12/31 10:58:47;;;;;;;12.57;8.80;;;;;;;16.93;57.26;94848.44;5037854;28;20195;-61
2023/12/31 11:01:16;;;;;;;14.67;8.80;;;;;;;16.86;56.81;94839.78;5046972;28;20183;-63
2023/12/31 11:03:44;;;;;;;10.43;8.90;;;;;;;16.90;56.79;94841.03;5047472;28;20195;-66
2023/12/31 11:06:12;;;;;;;13.27;8.43;;;;;;;16.39;56.58;94753.72;5047990;28;20191;-66
2023/12/31 11:08:41;;;;;;;13.70;9.33;;;;;;;16.91;56.66;94833.09;5047743;28;20240;-69
2023/12/31 11:11:08;;;;;;;16.63;9.47;;;;;;;16.92;56.52;94824.38;5047101;28;20183;-67
2023/12/31 11:13:38;;;;;;;14.47;9.47;;;;;;;16.83;56.41;94803.94;5051516;28;20624;-62
2023/12/31 11:16:07;;;;;;;11.70;9.30;;;;;;;16.76;56.35;94793.53;5056187;28;20671;-63
2023/12/31 11:18:56;;;;;;;12.10;7.93;;;;;;;16.90;57.40;94797.13;5068882;28;20215;-65
2023/12/31 11:21:44;;;;;;;10.20;7.30;;;;;;;17.20;63.81;94800.56;5077216;28;20190;-69